Time;durP1;ratioP1;P1;durP2;ratioP2;P2;SDS_P1;SDS_P2;PMS_P1;PMS_P2;Temp;Humidity;BMP_temperature;BMP_pressure;BME280_temperature;BME280_humidity;BME280_pressure;Samples;Min_cycle;Max_cycle;Signal;HPM_P1;HPM_P2
2023/06/21 00:01:05;;;;;;;35.53;32.33;;;22.90;99.90;;;;;;4987067;28;20625;-70
2023/06/21 00:03:32;;;;;;;36.15;32.80;;;22.90;99.90;;;;;;4987243;28;20221;-70
2023/06/21 00:05:58;;;;;;;34.45;31.45;;;22.90;99.90;;;;;;4986920;28;20665;-70
2023/06/21 00:08:27;;;;;;;36.75;33.42;;;22.90;99.90;;;;;;4986752;28;20707;-69
2023/06/21 00:10:54;;;;;;;37.00;33.63;;;22.90;99.90;;;;;;4987062;28;20779;-70
2023/06/21 00:13:21;;;;;;;35.33;32.28;;;22.90;99.90;;;;;;4987211;28;20213;-70
2023/06/21 00:15:49;;;;;;;35.72;32.80;;;22.90;99.90;;;;;;4986564;28;20218;-70
2023/06/21 00:18:16;;;;;;;34.00;30.90;;;22.90;99.90;;;;;;4987137;28;20261;-70
2023/06/21 00:20:43;;;;;;;35.25;32.20;;;22.90;99.90;;;;;;4986644;28;20297;-70
2023/06/21 00:23:11;;;;;;;36.88;33.78;;;22.90;99.90;;;;;;4986496;28;20692;-70
2023/06/21 00:25:39;;;;;;;35.08;31.98;;;22.90;99.90;;;;;;4986969;28;20210;-70
2023/06/21 00:28:06;;;;;;;34.20;31.20;;;22.80;99.90;;;;;;4986747;28;20293;-70
2023/06/21 00:30:33;;;;;;;34.00;31.02;;;22.80;99.90;;;;;;4986100;28;20696;-69
2023/06/21 00:33:02;;;;;;;35.13;32.08;;;22.80;99.90;;;;;;4986684;28;20210;-69
2023/06/21 00:35:28;;;;;;;36.05;32.80;;;22.80;99.90;;;;;;4991364;28;20205;-70
2023/06/21 00:37:55;;;;;;;36.08;32.65;;;22.90;99.90;;;;;;5006500;28;20213;-70
2023/06/21 00:40:25;;;;;;;35.65;32.30;;;22.90;99.90;;;;;;5006566;28;20213;-70
2023/06/21 00:42:54;;;;;;;35.05;31.88;;;22.80;99.90;;;;;;4996953;28;20222;-70
2023/06/21 00:45:21;;;;;;;34.60;31.63;;;22.80;99.90;;;;;;4986116;28;20226;-70
2023/06/21 00:47:49;;;;;;;34.90;31.83;;;22.80;99.90;;;;;;4986379;28;20248;-70
2023/06/21 00:50:17;;;;;;;35.97;32.85;;;22.80;99.90;;;;;;4985952;28;20268;-71
2023/06/21 00:52:44;;;;;;;36.45;33.28;;;22.80;99.90;;;;;;4985869;28;20248;-72
2023/06/21 00:55:13;;;;;;;37.13;33.78;;;22.80;99.90;;;;;;4986545;28;20237;-71
2023/06/21 00:57:40;;;;;;;36.72;33.60;;;22.80;99.90;;;;;;4986269;28;20292;-70
2023/06/21 01:00:16;;;;;;;36.60;33.30;;;22.70;99.90;;;;;;4986099;28;20320;-70
2023/06/21 01:02:43;;;;;;;36.35;33.25;;;22.80;99.90;;;;;;4985941;28;20216;-70
2023/06/21 01:05:11;;;;;;;33.67;30.77;;;22.80;99.90;;;;;;4986119;28;20692;-70
2023/06/21 01:07:47;;;;;;;35.42;32.45;;;22.80;99.90;;;;;;4971566;28;20309;-70
2023/06/21 01:10:26;;;;;;;34.42;31.42;;;22.70;99.90;;;;;;4967075;28;20285;-70
2023/06/21 01:13:08;;;;;;;35.88;32.85;;;22.70;99.90;;;;;;4978044;28;20289;-71
2023/06/21 01:15:42;;;;;;;34.28;31.20;;;22.70;99.90;;;;;;4966543;28;20222;-71
2023/06/21 01:18:14;;;;;;;34.45;31.50;;;22.70;99.90;;;;;;4967242;28;20566;-71
2023/06/21 01:20:43;;;;;;;34.47;31.60;;;22.70;99.90;;;;;;4985154;28;20657;-71
2023/06/21 01:23:39;;;;;;;35.35;32.22;;;22.70;99.90;;;;;;4986037;28;20273;-71
2023/06/21 01:26:21;;;;;;;35.08;31.95;;;22.70;99.90;;;;;;4986196;28;20296;-71
2023/06/21 01:29:06;;;;;;;34.28;31.38;;;22.70;99.90;;;;;;4986112;28;20209;-71
2023/06/21 01:31:33;;;;;;;34.90;31.67;;;22.70;99.90;;;;;;4989029;28;20221;-71
2023/06/21 01:34:02;;;;;;;34.78;31.73;;;22.70;99.90;;;;;;4985483;28;20309;-71
2023/06/21 01:36:30;;;;;;;34.03;31.10;;;22.70;99.90;;;;;;4985868;28;20888;-71
2023/06/21 01:38:57;;;;;;;34.70;31.63;;;22.80;99.90;;;;;;4986102;28;20237;-72
2023/06/21 01:41:25;;;;;;;35.28;32.20;;;22.70;99.90;;;;;;4985680;28;20214;-72
2023/06/21 01:43:53;;;;;;;34.42;31.48;;;22.80;99.90;;;;;;4986182;28;20206;-72
2023/06/21 01:46:23;;;;;;;34.03;31.10;;;22.70;99.90;;;;;;4985208;28;20324;-72
2023/06/21 01:48:51;;;;;;;35.25;32.05;;;22.70;99.90;;;;;;4986178;28;20220;-72
2023/06/21 01:51:19;;;;;;;34.38;31.38;;;22.70;99.90;;;;;;4985761;28;20222;-72
2023/06/21 01:53:46;;;;;;;33.50;30.48;;;22.70;99.90;;;;;;4985552;28;20230;-72
2023/06/21 01:56:17;;;;;;;33.90;30.80;;;22.60;99.90;;;;;;4986445;28;20244;-72
2023/06/21 01:58:45;;;;;;;33.45;29.95;;;22.60;99.90;;;;;;4986206;28;20198;-70
2023/06/21 02:01:13;;;;;;;35.10;31.98;;;22.70;99.90;;;;;;4987628;28;20202;-71
2023/06/21 02:03:45;;;;;;;33.83;30.88;;;22.70;99.90;;;;;;5004889;28;20631;-71
2023/06/21 02:06:14;;;;;;;33.65;30.55;;;22.70;99.90;;;;;;5008879;28;20215;-71
2023/06/21 02:08:42;;;;;;;32.72;29.83;;;22.70;99.90;;;;;;5008758;28;20221;-71
2023/06/21 02:11:10;;;;;;;32.88;29.98;;;22.70;99.90;;;;;;4992569;28;20724;-71
2023/06/21 02:13:36;;;;;;;32.83;30.13;;;22.70;99.90;;;;;;4989025;28;20213;-71
2023/06/21 02:16:04;;;;;;;34.15;31.35;;;22.80;99.90;;;;;;4989018;28;20566;-71
2023/06/21 02:18:31;;;;;;;33.47;30.40;;;22.70;99.90;;;;;;4989091;28;20599;-72
2023/06/21 02:20:59;;;;;;;33.42;30.33;;;22.60;99.90;;;;;;4989577;28;20354;-72
2023/06/21 02:23:26;;;;;;;34.67;31.50;;;22.50;99.90;;;;;;4974101;28;20290;-70
2023/06/21 02:25:53;;;;;;;35.22;32.17;;;22.40;99.90;;;;;;4989248;28;20297;-70
2023/06/21 02:28:21;;;;;;;33.13;30.23;;;22.20;99.90;;;;;;4997213;28;20296;-70
2023/06/21 02:30:48;;;;;;;33.17;30.05;;;22.00;99.90;;;;;;4977720;28;20215;-70
2023/06/21 02:33:14;;;;;;;35.90;32.80;;;21.90;99.90;;;;;;4987186;28;20693;-70
2023/06/21 02:35:41;;;;;;;38.40;34.73;;;21.60;99.90;;;;;;4986957;28;20341;-70
2023/06/21 02:38:10;;;;;;;40.27;36.37;;;21.40;99.90;;;;;;4987349;28;20297;-70
2023/06/21 02:40:36;;;;;;;40.60;36.63;;;21.20;99.90;;;;;;4987067;28;20586;-70
2023/06/21 02:43:04;;;;;;;42.43;38.47;;;21.00;99.90;;;;;;4986865;28;20206;-70
2023/06/21 02:45:31;;;;;;;45.80;41.40;;;21.00;99.90;;;;;;4986944;28;20254;-70
2023/06/21 02:47:57;;;;;;;47.50;42.70;;;21.10;99.90;;;;;;4986994;28;20301;-70
2023/06/21 02:50:25;;;;;;;45.47;41.27;;;21.10;99.90;;;;;;4987118;28;20220;-70
2023/06/21 02:52:51;;;;;;;47.03;42.70;;;21.20;99.90;;;;;;4986588;28;20256;-69
2023/06/21 02:55:20;;;;;;;48.47;43.97;;;21.20;99.90;;;;;;4987003;28;20218;-70
2023/06/21 02:57:47;;;;;;;49.80;44.93;;;21.30;99.90;;;;;;4986915;28;20206;-69
2023/06/21 03:00:22;;;;;;;48.77;44.13;;;21.50;99.90;;;;;;4986492;28;20697;-74
2023/06/21 03:02:49;;;;;;;46.70;42.30;;;21.50;99.90;;;;;;4985997;28;20229;-70
2023/06/21 03:05:16;;;;;;;49.10;44.30;;;21.50;99.90;;;;;;4988662;28;20241;-70
2023/06/21 03:07:44;;;;;;;50.00;45.17;;;21.60;99.90;;;;;;4987081;28;20272;-71
2023/06/21 03:10:12;;;;;;;49.30;44.70;;;21.60;99.90;;;;;;4987330;28;20208;-69
2023/06/21 03:12:42;;;;;;;50.63;45.70;;;21.70;99.90;;;;;;4986823;28;20226;-69
2023/06/21 03:15:10;;;;;;;48.73;43.93;;;21.80;99.90;;;;;;4988037;28;20622;-69
2023/06/21 03:17:37;;;;;;;50.53;45.53;;;21.70;99.90;;;;;;4987901;28;20206;-69
2023/06/21 03:20:09;;;;;;;49.37;44.77;;;21.70;99.90;;;;;;4988247;28;20304;-69
2023/06/21 03:22:36;;;;;;;49.45;44.42;;;21.80;99.90;;;;;;4987673;28;20803;-69
2023/06/21 03:25:03;;;;;;;46.85;42.05;;;21.80;99.90;;;;;;4980211;28;20558;-70
2023/06/21 03:27:29;;;;;;;49.07;44.53;;;21.70;99.90;;;;;;4987834;28;20248;-69
2023/06/21 03:29:58;;;;;;;49.78;44.92;;;21.70;99.90;;;;;;4987622;28;20628;-69
2023/06/21 03:32:25;;;;;;;49.37;44.57;;;21.70;99.90;;;;;;4987796;28;20317;-69
2023/06/21 03:34:51;;;;;;;51.00;46.00;;;21.70;99.90;;;;;;4987973;28;20735;-69
2023/06/21 03:37:18;;;;;;;49.63;44.90;;;21.80;99.90;;;;;;4988060;28;20233;-70
2023/06/21 03:39:45;;;;;;;49.28;44.58;;;21.70;99.90;;;;;;4987935;28;20210;-69
2023/06/21 03:42:12;;;;;;;52.10;47.08;;;21.70;99.90;;;;;;4987926;28;20668;-69
2023/06/21 03:44:39;;;;;;;48.40;43.58;;;21.70;99.90;;;;;;4987671;28;20328;-69
2023/06/21 03:47:10;;;;;;;51.08;46.17;;;21.80;99.90;;;;;;4987338;28;20301;-69
2023/06/21 03:49:37;;;;;;;49.97;45.28;;;21.80;99.90;;;;;;4987955;28;20217;-69
2023/06/21 03:52:04;;;;;;;49.10;44.55;;;21.80;99.90;;;;;;4988105;28;20244;-69
2023/06/21 03:54:31;;;;;;;48.10;43.70;;;21.90;99.90;;;;;;4986454;28;20210;-69
2023/06/21 03:56:58;;;;;;;46.40;42.05;;;21.90;99.90;;;;;;4968259;28;20242;-69
2023/06/21 03:59:25;;;;;;;47.60;42.95;;;21.90;99.90;;;;;;4968087;28;20215;-69
2023/06/21 04:01:51;;;;;;;45.80;41.60;;;21.90;99.90;;;;;;4967601;28;20763;-69
2023/06/21 04:04:23;;;;;;;44.07;40.03;;;21.80;99.90;;;;;;4967703;28;20651;-69
2023/06/21 04:06:50;;;;;;;43.17;39.38;;;21.60;99.90;;;;;;4978990;28;20747;-69
2023/06/21 04:09:18;;;;;;;43.05;39.00;;;21.40;99.90;;;;;;4987492;28;20225;-69
2023/06/21 04:11:45;;;;;;;43.72;39.63;;;21.40;99.90;;;;;;4986831;28;20221;-69
2023/06/21 04:14:14;;;;;;;45.07;40.87;;;21.30;99.90;;;;;;4987287;28;20565;-69
2023/06/21 04:16:41;;;;;;;43.90;39.90;;;21.50;99.90;;;;;;4987082;28;20212;-69
2023/06/21 04:19:08;;;;;;;45.08;40.95;;;21.40;99.90;;;;;;4987048;28;20816;-70
2023/06/21 04:21:36;;;;;;;46.13;41.87;;;21.50;99.90;;;;;;5000952;28;20834;-69
2023/06/21 04:24:03;;;;;;;46.08;41.72;;;21.60;99.90;;;;;;4979303;28;20314;-69
2023/06/21 04:26:30;;;;;;;44.00;39.90;;;21.40;99.90;;;;;;4984434;28;20306;-69
2023/06/21 04:29:00;;;;;;;46.80;42.50;;;21.40;99.90;;;;;;4987398;28;20293;-69
2023/06/21 04:31:27;;;;;;;44.70;40.63;;;21.40;99.90;;;;;;4986670;28;20260;-70
2023/06/21 04:33:54;;;;;;;46.40;42.03;;;21.40;99.90;;;;;;4986957;28;20317;-69
2023/06/21 04:36:21;;;;;;;45.83;41.27;;;21.40;99.90;;;;;;4991709;28;20309;-69
2023/06/21 04:38:49;;;;;;;46.37;42.00;;;21.50;99.90;;;;;;5006641;28;20268;-69
2023/06/21 04:41:17;;;;;;;46.37;41.97;;;21.50;99.90;;;;;;4991845;28;21077;-69
2023/06/21 04:43:43;;;;;;;46.70;42.53;;;21.60;99.90;;;;;;4986528;28;20249;-69
2023/06/21 04:46:10;;;;;;;45.88;41.72;;;21.60;99.90;;;;;;4986247;28;20320;-69
2023/06/21 04:48:37;;;;;;;45.10;40.90;;;21.70;99.90;;;;;;4967319;28;20281;-69
2023/06/21 04:51:04;;;;;;;45.07;40.97;;;21.80;99.90;;;;;;4971771;28;20206;-69
2023/06/21 04:53:32;;;;;;;44.28;40.22;;;21.90;99.90;;;;;;4986332;28;20281;-69
2023/06/21 04:56:00;;;;;;;45.65;41.20;;;21.90;99.90;;;;;;4974096;28;20218;-69
2023/06/21 04:58:27;;;;;;;45.88;41.88;;;21.90;99.90;;;;;;4967197;28;20624;-69
2023/06/21 05:00:54;;;;;;;44.20;40.30;;;22.00;99.90;;;;;;4966938;28;20238;-69
2023/06/21 05:03:21;;;;;;;44.72;40.63;;;22.00;99.90;;;;;;4976387;28;20292;-69
2023/06/21 05:05:48;;;;;;;44.50;40.30;;;22.00;99.90;;;;;;4989123;28;20308;-69
2023/06/21 05:08:15;;;;;;;44.83;40.65;;;22.00;99.90;;;;;;5006147;28;20218;-69
2023/06/21 05:10:42;;;;;;;43.10;39.03;;;22.10;99.90;;;;;;5005798;28;20292;-69
2023/06/21 05:13:10;;;;;;;43.50;39.70;;;22.10;99.90;;;;;;5005596;28;20325;-69
2023/06/21 05:15:37;;;;;;;42.95;39.25;;;22.20;99.90;;;;;;5005698;28;20209;-69
2023/06/21 05:18:05;;;;;;;44.50;40.45;;;22.10;99.90;;;;;;5005648;28;20240;-69
2023/06/21 05:20:33;;;;;;;45.15;40.97;;;22.00;99.90;;;;;;4989199;28;20639;-70
2023/06/21 05:23:00;;;;;;;43.65;39.85;;;22.00;99.90;;;;;;4986287;28;20224;-70
2023/06/21 05:25:27;;;;;;;44.17;40.33;;;22.00;99.90;;;;;;4986017;28;20218;-69
2023/06/21 05:27:54;;;;;;;44.00;40.10;;;22.00;99.90;;;;;;4986016;28;20752;-69
2023/06/21 05:30:22;;;;;;;44.80;40.90;;;22.00;99.90;;;;;;4986193;28;20589;-69
2023/06/21 05:32:49;;;;;;;42.67;38.72;;;22.00;99.90;;;;;;4985961;28;20329;-69
2023/06/21 05:35:16;;;;;;;42.80;38.78;;;22.10;99.90;;;;;;4986843;28;20232;-69
2023/06/21 05:37:43;;;;;;;42.55;38.70;;;22.10;99.90;;;;;;4990045;28;20320;-70
2023/06/21 05:40:11;;;;;;;43.88;39.67;;;22.00;99.90;;;;;;4990227;28;20601;-69
2023/06/21 05:42:38;;;;;;;42.23;38.53;;;21.90;99.90;;;;;;4989753;28;20213;-69
2023/06/21 05:45:07;;;;;;;45.33;41.05;;;21.90;99.90;;;;;;4989401;28;20809;-69
2023/06/21 05:47:35;;;;;;;42.97;39.10;;;21.90;99.90;;;;;;4983277;28;20306;-69
2023/06/21 05:50:02;;;;;;;44.33;40.33;;;21.90;99.90;;;;;;4970576;28;20300;-69
2023/06/21 05:52:30;;;;;;;45.10;40.60;;;21.70;99.90;;;;;;4970012;28;20243;-69
2023/06/21 05:54:57;;;;;;;43.77;39.87;;;21.70;99.90;;;;;;4974734;28;20210;-70
2023/06/21 05:57:26;;;;;;;45.80;41.67;;;21.60;99.90;;;;;;4989637;28;20297;-69
2023/06/21 05:59:53;;;;;;;43.47;39.63;;;21.70;99.90;;;;;;4989473;28;20206;-69
2023/06/21 06:02:20;;;;;;;42.27;38.33;;;21.70;99.90;;;;;;4988981;28;20304;-69
2023/06/21 06:04:48;;;;;;;42.43;38.60;;;21.70;99.90;;;;;;4989722;28;20312;-70
2023/06/21 06:07:15;;;;;;;42.57;38.80;;;21.70;99.90;;;;;;4989485;28;20216;-70
2023/06/21 06:09:42;;;;;;;42.10;38.30;;;21.70;99.90;;;;;;4989496;28;20234;-70
2023/06/21 06:12:09;;;;;;;43.10;38.80;;;21.70;99.90;;;;;;4989709;28;20245;-70
2023/06/21 06:14:36;;;;;;;41.97;38.37;;;21.70;99.90;;;;;;5007735;28;20300;-70
2023/06/21 06:17:03;;;;;;;40.60;37.03;;;21.80;99.90;;;;;;4990265;28;20751;-71
2023/06/21 06:19:30;;;;;;;41.10;37.40;;;22.00;99.90;;;;;;4989563;28;20588;-70
2023/06/21 06:21:59;;;;;;;39.10;35.80;;;22.00;99.90;;;;;;4989707;28;20242;-70
2023/06/21 06:24:27;;;;;;;36.80;33.50;;;22.00;99.90;;;;;;4988923;28;20699;-70
2023/06/21 06:26:54;;;;;;;39.00;35.47;;;22.00;99.90;;;;;;4989160;28;20202;-71
2023/06/21 06:29:22;;;;;;;37.63;33.97;;;22.00;99.90;;;;;;4989579;28;20210;-70
2023/06/21 06:31:49;;;;;;;36.53;33.03;;;21.90;99.90;;;;;;4988578;28;20209;-71
2023/06/21 06:34:16;;;;;;;37.53;34.13;;;22.00;99.90;;;;;;4989061;28;20692;-70
2023/06/21 06:36:43;;;;;;;35.05;31.58;;;22.10;99.90;;;;;;4989338;28;20218;-70
2023/06/21 06:39:12;;;;;;;33.47;30.43;;;22.10;99.90;;;;;;4989310;28;20296;-70
2023/06/21 06:41:39;;;;;;;35.67;32.47;;;22.10;99.90;;;;;;4988706;28;20618;-71
2023/06/21 06:44:06;;;;;;;34.37;31.40;;;22.10;99.90;;;;;;4996806;28;20228;-70
2023/06/21 06:46:33;;;;;;;32.70;29.85;;;22.10;99.90;;;;;;5007546;28;20997;-71
2023/06/21 06:49:00;;;;;;;30.93;28.23;;;22.10;99.90;;;;;;5008668;28;20213;-70
2023/06/21 06:51:27;;;;;;;31.13;28.02;;;22.20;99.90;;;;;;5008238;28;20219;-70
2023/06/21 06:53:54;;;;;;;28.97;26.50;;;22.30;99.90;;;;;;5008186;28;20332;-70
2023/06/21 06:56:22;;;;;;;30.08;27.23;;;22.30;99.90;;;;;;4992833;28;20248;-70
2023/06/21 06:58:49;;;;;;;28.27;25.70;;;22.40;99.90;;;;;;4989078;28;20569;-70
2023/06/21 07:01:16;;;;;;;27.13;24.80;;;22.40;99.90;;;;;;4988983;28;20217;-70
2023/06/21 07:03:43;;;;;;;26.58;24.33;;;22.40;99.90;;;;;;4988657;28;20223;-70
2023/06/21 07:06:10;;;;;;;26.90;24.20;;;22.40;99.90;;;;;;4988886;28;20226;-70
2023/06/21 07:08:42;;;;;;;24.40;22.30;;;22.40;99.90;;;;;;4988588;28;20306;-70
2023/06/21 07:11:09;;;;;;;25.47;22.97;;;22.50;99.90;;;;;;5007268;28;20198;-71
2023/06/21 07:13:38;;;;;;;24.55;22.55;;;22.50;99.90;;;;;;4988617;28;20336;-70
2023/06/21 07:16:05;;;;;;;24.77;22.67;;;22.60;99.90;;;;;;4988274;28;20292;-70
2023/06/21 07:18:33;;;;;;;23.80;21.70;;;22.60;99.90;;;;;;4988366;28;20237;-70
2023/06/21 07:21:01;;;;;;;21.92;20.20;;;22.60;99.90;;;;;;4988537;28;20214;-71
2023/06/21 07:23:29;;;;;;;20.60;19.00;;;22.60;99.90;;;;;;4987281;28;20207;-70
2023/06/21 07:25:56;;;;;;;21.02;19.33;;;22.60;99.90;;;;;;4988280;28;20244;-70
2023/06/21 07:28:23;;;;;;;23.17;21.25;;;22.70;99.90;;;;;;4987317;28;20210;-71
2023/06/21 07:30:51;;;;;;;20.98;19.15;;;22.70;99.90;;;;;;4987770;28;20673;-71
2023/06/21 07:33:18;;;;;;;20.90;19.08;;;22.80;99.90;;;;;;4988053;28;20233;-70
2023/06/21 07:35:45;;;;;;;18.38;16.77;;;22.90;99.90;;;;;;4987892;28;20334;-71
2023/06/21 07:38:12;;;;;;;16.02;14.57;;;22.90;99.90;;;;;;4987993;28;20649;-70
2023/06/21 07:40:39;;;;;;;16.92;15.63;;;23.00;99.90;;;;;;4987835;28;20695;-70
2023/06/21 07:43:06;;;;;;;17.33;15.90;;;23.00;99.90;;;;;;4988120;28;20644;-70
2023/06/21 07:45:33;;;;;;;18.00;16.48;;;23.00;99.90;;;;;;4987210;28;20245;-71
2023/06/21 07:48:01;;;;;;;18.42;16.73;;;23.00;99.90;;;;;;4973375;28;20203;-71
2023/06/21 07:50:28;;;;;;;17.75;16.25;;;23.00;99.90;;;;;;4968526;28;20211;-71
2023/06/21 07:52:55;;;;;;;18.47;16.73;;;23.10;99.90;;;;;;4968062;28;20346;-70
2023/06/21 07:55:22;;;;;;;19.35;17.70;;;23.20;99.90;;;;;;4986340;28;20201;-70
2023/06/21 07:57:48;;;;;;;18.92;17.05;;;23.30;99.90;;;;;;5006475;28;20271;-70
2023/06/21 08:00:16;;;;;;;18.85;17.27;;;23.30;99.90;;;;;;5006726;28;20308;-71
2023/06/21 08:02:45;;;;;;;17.90;16.27;;;23.50;99.90;;;;;;5006415;28;20309;-70
2023/06/21 08:05:14;;;;;;;17.85;16.10;;;23.50;99.90;;;;;;5006600;28;20234;-70
2023/06/21 08:07:41;;;;;;;18.17;16.40;;;23.60;99.90;;;;;;5003054;28;20210;-70
2023/06/21 08:10:09;;;;;;;18.30;16.70;;;23.70;99.90;;;;;;4987248;28;20224;-71
2023/06/21 08:12:36;;;;;;;16.40;15.00;;;23.70;99.90;;;;;;4986805;28;20210;-70
2023/06/21 08:15:03;;;;;;;16.30;14.80;;;23.80;99.90;;;;;;4986880;28;20748;-71
2023/06/21 08:17:30;;;;;;;14.98;13.73;;;23.80;99.90;;;;;;4987035;28;20257;-71
2023/06/21 08:19:58;;;;;;;14.98;13.57;;;23.90;99.90;;;;;;4986975;28;21002;-70
2023/06/21 08:22:26;;;;;;;14.27;13.07;;;24.00;99.90;;;;;;4986913;28;20210;-71
2023/06/21 08:24:55;;;;;;;14.90;13.70;;;24.00;99.90;;;;;;4970982;28;20245;-70
2023/06/21 08:27:22;;;;;;;13.68;12.68;;;24.00;99.90;;;;;;4987060;28;20221;-70
2023/06/21 08:29:49;;;;;;;13.05;11.85;;;24.10;99.90;;;;;;4986899;28;20242;-71
2023/06/21 08:32:16;;;;;;;13.40;12.25;;;24.10;99.90;;;;;;4986453;28;20253;-71
2023/06/21 08:34:43;;;;;;;13.43;12.02;;;24.20;99.90;;;;;;4986295;28;20328;-71
2023/06/21 08:37:10;;;;;;;12.50;11.50;;;24.30;99.90;;;;;;4986292;28;20214;-71
2023/06/21 08:39:39;;;;;;;13.02;12.02;;;24.30;99.90;;;;;;4986742;28;20220;-71
2023/06/21 08:42:09;;;;;;;12.20;10.95;;;24.40;99.90;;;;;;4986422;28;20207;-70
2023/06/21 08:44:36;;;;;;;12.02;11.13;;;24.40;99.90;;;;;;4986374;28;20325;-71
2023/06/21 08:47:05;;;;;;;12.73;11.73;;;24.40;99.90;;;;;;4986456;28;20206;-70
2023/06/21 08:49:35;;;;;;;12.23;11.23;;;24.40;99.90;;;;;;4986433;28;20210;-70
2023/06/21 08:52:05;;;;;;;12.25;11.25;;;24.40;99.90;;;;;;4986968;28;20615;-70
2023/06/21 08:54:36;;;;;;;11.57;10.63;;;24.60;99.90;;;;;;4986204;28;20234;-70
2023/06/21 08:57:09;;;;;;;11.63;10.75;;;24.60;99.90;;;;;;4986559;28;20633;-71
2023/06/21 08:59:42;;;;;;;12.10;11.07;;;24.60;99.90;;;;;;4986260;28;20912;-71
2023/06/21 09:02:20;;;;;;;10.25;9.55;;;24.70;99.90;;;;;;4994242;28;20620;-71
2023/06/21 09:04:50;;;;;;;10.40;9.50;;;24.80;99.90;;;;;;4995556;28;20791;-71
2023/06/21 09:07:17;;;;;;;10.70;9.85;;;24.80;99.90;;;;;;4999096;28;20273;-71
2023/06/21 09:09:46;;;;;;;15.65;14.35;;;25.00;99.90;;;;;;5006057;28;20292;-72
2023/06/21 09:12:17;;;;;;;11.35;10.55;;;25.10;99.90;;;;;;5005826;28;20257;-68
2023/06/21 09:14:44;;;;;;;10.95;10.05;;;25.10;99.90;;;;;;5005650;28;20229;-69
2023/06/21 09:17:12;;;;;;;9.60;8.90;;;25.20;99.90;;;;;;4988632;28;20643;-69
2023/06/21 09:19:39;;;;;;;9.55;8.93;;;25.40;99.90;;;;;;4986283;28;20229;-69
2023/06/21 09:22:09;;;;;;;9.13;8.63;;;25.40;99.90;;;;;;4986057;28;20671;-68
2023/06/21 09:24:36;;;;;;;9.70;8.88;;;25.40;99.90;;;;;;4969883;28;20210;-69
2023/06/21 09:27:03;;;;;;;9.93;9.15;;;25.50;99.90;;;;;;4966641;28;20213;-69
2023/06/21 09:29:32;;;;;;;9.68;8.98;;;25.40;99.90;;;;;;4967157;28;20732;-69
2023/06/21 09:32:01;;;;;;;9.48;8.77;;;25.50;99.90;;;;;;4969844;28;20317;-69
2023/06/21 09:34:28;;;;;;;9.68;8.85;;;25.40;99.90;;;;;;5005571;28;20726;-69
2023/06/21 09:36:55;;;;;;;9.57;8.77;;;25.40;99.90;;;;;;5006139;28;20322;-69
2023/06/21 09:39:24;;;;;;;9.35;8.60;;;25.40;99.90;;;;;;5005476;28;20763;-69
2023/06/21 09:41:51;;;;;;;8.77;8.07;;;25.50;99.90;;;;;;5005779;28;20213;-69
2023/06/21 09:44:21;;;;;;;8.57;7.90;;;25.60;99.90;;;;;;5005291;28;20293;-69
2023/06/21 09:46:49;;;;;;;8.88;8.27;;;25.60;99.90;;;;;;5004356;28;20218;-69
2023/06/21 09:49:16;;;;;;;9.82;8.95;;;25.60;99.90;;;;;;4985475;28;20260;-68
2023/06/21 09:51:45;;;;;;;8.27;7.78;;;25.50;99.90;;;;;;4985841;28;20214;-69
2023/06/21 09:54:12;;;;;;;9.13;8.43;;;25.70;99.90;;;;;;4985416;28;20258;-69
2023/06/21 09:56:39;;;;;;;8.23;7.63;;;25.80;99.90;;;;;;4986065;28;20233;-68
2023/06/21 09:59:15;;;;;;;8.95;8.25;;;26.00;99.90;;;;;;4999918;28;20288;-69
2023/06/21 10:01:45;;;;;;;8.85;8.15;;;25.90;99.90;;;;;;4989408;28;20225;-69
2023/06/21 10:04:14;;;;;;;8.65;8.05;;;25.80;99.90;;;;;;4986306;28;20213;-68
2023/06/21 10:06:49;;;;;;;8.38;7.88;;;25.70;99.90;;;;;;4985936;28;20246;-69
2023/06/21 10:09:16;;;;;;;8.57;7.80;;;25.80;99.90;;;;;;4985873;28;20205;-68
2023/06/21 10:11:44;;;;;;;8.82;8.13;;;25.80;99.90;;;;;;4985467;28;20739;-68
2023/06/21 10:14:19;;;;;;;8.75;8.05;;;25.90;99.90;;;;;;4985577;28;20248;-68
2023/06/21 10:16:50;;;;;;;8.10;7.50;;;26.10;99.90;;;;;;4985717;28;20197;-69
2023/06/21 10:19:21;;;;;;;7.95;7.45;;;26.30;99.90;;;;;;4985964;28;20553;-68
2023/06/21 10:21:51;;;;;;;7.45;6.95;;;26.40;99.90;;;;;;4986761;28;20202;-68
2023/06/21 10:24:19;;;;;;;8.00;7.30;;;26.40;99.90;;;;;;4989280;28;20201;-68
2023/06/21 10:26:49;;;;;;;7.28;6.82;;;26.30;99.90;;;;;;4988984;28;20241;-69
2023/06/21 10:29:16;;;;;;;8.65;6.70;;;26.30;99.90;;;;;;4989120;28;20210;-68
2023/06/21 10:31:45;;;;;;;6.70;6.20;;;26.30;99.90;;;;;;4988945;28;20302;-69
2023/06/21 10:34:20;;;;;;;7.00;6.50;;;26.50;99.90;;;;;;4989037;28;20298;-68
2023/06/21 10:36:52;;;;;;;6.80;6.40;;;26.40;99.90;;;;;;4989549;28;20232;-69
2023/06/21 10:39:23;;;;;;;7.43;6.93;;;26.30;99.90;;;;;;4989226;28;20298;-69
2023/06/21 10:41:51;;;;;;;6.82;6.32;;;26.30;99.90;;;;;;4989393;28;20310;-69
2023/06/21 10:44:18;;;;;;;8.65;6.88;;;26.40;99.90;;;;;;4988979;28;20796;-68
2023/06/21 10:46:46;;;;;;;9.63;6.72;;;26.30;99.90;;;;;;4988360;28;20685;-68
2023/06/21 10:49:13;;;;;;;6.55;6.15;;;26.20;99.90;;;;;;4988816;28;20753;-68
2023/06/21 10:51:43;;;;;;;6.47;6.07;;;26.30;99.90;;;;;;4988275;28;20210;-68
2023/06/21 10:54:11;;;;;;;6.60;6.10;;;26.50;99.90;;;;;;4992840;28;20676;-68
2023/06/21 10:56:39;;;;;;;6.30;5.80;;;26.70;99.90;;;;;;5003433;28;20714;-69
2023/06/21 10:59:06;;;;;;;8.13;5.75;;;26.90;99.90;;;;;;4988919;28;20206;-68
2023/06/21 11:01:33;;;;;;;6.50;6.10;;;27.10;99.90;;;;;;4988066;28;20848;-69
2023/06/21 11:04:00;;;;;;;6.25;5.75;;;27.10;99.90;;;;;;4988876;28;20218;-69
2023/06/21 11:06:28;;;;;;;6.60;5.93;;;27.20;99.90;;;;;;4988339;28;20669;-69
2023/06/21 11:08:57;;;;;;;6.63;6.13;;;27.00;99.90;;;;;;4988616;28;20210;-68
2023/06/21 11:11:31;;;;;;;6.93;6.32;;;26.90;99.90;;;;;;4988408;28;20233;-68
2023/06/21 11:13:58;;;;;;;5.97;5.38;;;26.70;99.90;;;;;;4988448;28;20236;-68
2023/06/21 11:16:27;;;;;;;6.15;5.70;;;26.50;99.90;;;;;;4988009;28;20732;-69
2023/06/21 11:18:57;;;;;;;6.47;6.03;;;26.50;99.90;;;;;;4988656;28;20202;-69
2023/06/21 11:21:40;;;;;;;6.35;5.95;;;26.40;99.90;;;;;;4988258;28;20190;-69
2023/06/21 11:24:10;;;;;;;6.18;5.78;;;26.40;99.90;;;;;;4975586;28;20640;-68
2023/06/21 11:26:53;;;;;;;6.97;6.03;;;26.20;99.90;;;;;;4969771;28;20701;-68
2023/06/21 11:29:20;;;;;;;6.72;6.13;;;26.20;99.90;;;;;;4968959;28;20242;-68
2023/06/21 11:31:48;;;;;;;7.40;6.80;;;26.10;99.90;;;;;;4968750;28;20289;-69
2023/06/21 11:34:23;;;;;;;8.25;7.53;;;26.20;99.90;;;;;;4967961;28;20239;-69
2023/06/21 11:36:51;;;;;;;7.47;6.97;;;26.40;99.90;;;;;;4977964;28;20637;-68
2023/06/21 11:39:28;;;;;;;6.22;5.82;;;26.50;99.90;;;;;;4988096;28;20210;-69
2023/06/21 11:42:00;;;;;;;5.65;5.35;;;26.70;99.90;;;;;;4988472;28;20190;-69
2023/06/21 11:44:31;;;;;;;7.65;5.80;;;26.80;99.90;;;;;;4987644;28;20237;-69
2023/06/21 11:47:05;;;;;;;6.72;6.22;;;26.90;99.90;;;;;;4987708;28;20281;-68
2023/06/21 11:49:33;;;;;;;6.10;5.70;;;27.00;99.90;;;;;;4987388;28;20201;-69
2023/06/21 11:52:05;;;;;;;5.93;5.53;;;26.80;99.90;;;;;;5004682;28;20217;-68
2023/06/21 11:54:35;;;;;;;6.15;5.78;;;26.80;99.90;;;;;;4988410;28;20324;-69
2023/06/21 11:57:05;;;;;;;6.63;6.13;;;26.80;99.90;;;;;;4987876;28;20313;-68
2023/06/21 11:59:33;;;;;;;6.63;6.03;;;27.10;99.90;;;;;;4987180;28;20700;-68
2023/06/21 12:02:12;;;;;;;5.80;5.43;;;27.40;99.90;;;;;;4987275;28;20300;-69
2023/06/21 12:04:40;;;;;;;5.60;5.30;;;27.70;99.90;;;;;;4987517;28;20210;-69
2023/06/21 12:07:07;;;;;;;6.05;5.65;;;27.80;99.90;;;;;;4998714;28;20213;-69
2023/06/21 12:09:36;;;;;;;5.80;5.50;;;27.60;99.90;;;;;;5007215;28;20205;-69
2023/06/21 12:12:03;;;;;;;6.05;5.65;;;27.40;99.90;;;;;;5007320;28;20201;-71
2023/06/21 12:14:30;;;;;;;6.18;5.70;;;27.10;99.90;;;;;;5007146;28;20233;-71
2023/06/21 12:16:59;;;;;;;5.93;5.53;;;26.90;99.90;;;;;;5006966;28;20532;-71
2023/06/21 12:19:25;;;;;;;5.90;5.60;;;26.90;99.90;;;;;;5006837;28;20209;-71
2023/06/21 12:22:00;;;;;;;6.32;5.85;;;27.00;99.90;;;;;;4996210;28;20238;-71
2023/06/21 12:24:27;;;;;;;6.38;5.47;;;27.30;99.90;;;;;;4987109;28;20201;-71
2023/06/21 12:26:57;;;;;;;6.03;5.53;;;27.30;99.90;;;;;;4987041;28;20217;-71
2023/06/21 12:29:25;;;;;;;5.90;5.40;;;27.40;99.90;;;;;;4986955;28;20193;-71
2023/06/21 12:31:53;;;;;;;8.15;5.50;;;27.50;99.90;;;;;;4986969;28;20221;-71
2023/06/21 12:34:20;;;;;;;5.75;5.20;;;27.50;99.90;;;;;;4986568;28;20413;-71
2023/06/21 12:36:47;;;;;;;5.35;5.05;;;27.50;99.90;;;;;;4986916;28;20735;-70
2023/06/21 12:39:15;;;;;;;6.07;5.68;;;27.50;99.90;;;;;;4986682;28;20879;-71